sensor_id;sensor_type;location;lat;lon;timestamp;temperature;humidity
52495;DHT22;38405;53.212;5.660;2022-08-19T00:00:29;14.40;99.90
52495;DHT22;38405;53.212;5.660;2022-08-19T00:02:55;14.30;99.90
52495;DHT22;38405;53.212;5.660;2022-08-19T00:05:22;14.20;99.90
52495;DHT22;38405;53.212;5.660;2022-08-19T00:07:48;14.20;99.90
52495;DHT22;38405;53.212;5.660;2022-08-19T00:10:15;14.10;99.90
52495;DHT22;38405;53.212;5.660;2022-08-19T00:12:42;14.10;99.90
52495;DHT22;38405;53.212;5.660;2022-08-19T00:15:10;14.10;99.90
52495;DHT22;38405;53.212;5.660;2022-08-19T00:17:42;14.10;99.90
52495;DHT22;38405;53.212;5.660;2022-08-19T00:20:10;14.10;99.90
52495;DHT22;38405;53.212;5.660;2022-08-19T00:22:38;14.00;99.90
52495;DHT22;38405;53.212;5.660;2022-08-19T00:25:04;13.90;99.90
52495;DHT22;38405;53.212;5.660;2022-08-19T00:27:31;13.90;99.90
52495;DHT22;38405;53.212;5.660;2022-08-19T00:29:56;13.80;99.90
52495;DHT22;38405;53.212;5.660;2022-08-19T00:32:24;13.70;99.90
52495;DHT22;38405;53.212;5.660;2022-08-19T00:34:50;13.70;99.90
52495;DHT22;38405;53.212;5.660;2022-08-19T00:37:20;13.70;99.90
52495;DHT22;38405;53.212;5.660;2022-08-19T00:39:48;13.70;99.90
52495;DHT22;38405;53.212;5.660;2022-08-19T00:42:14;13.60;99.90
52495;DHT22;38405;53.212;5.660;2022-08-19T00:44:41;13.60;99.90
52495;DHT22;38405;53.212;5.660;2022-08-19T00:47:06;13.60;99.90
52495;DHT22;38405;53.212;5.660;2022-08-19T00:49:44;13.60;99.90
52495;DHT22;38405;53.212;5.660;2022-08-19T00:52:16;13.70;99.90
52495;DHT22;38405;53.212;5.660;2022-08-19T00:54:44;13.70;99.90
52495;DHT22;38405;53.212;5.660;2022-08-19T00:57:15;13.60;99.90
52495;DHT22;38405;53.212;5.660;2022-08-19T00:59:46;13.70;99.90
52495;DHT22;38405;53.212;5.660;2022-08-19T01:02:14;13.70;99.90
52495;DHT22;38405;53.212;5.660;2022-08-19T01:04:40;13.70;99.90
52495;DHT22;38405;53.212;5.660;2022-08-19T01:07:06;13.60;99.90
52495;DHT22;38405;53.212;5.660;2022-08-19T01:09:32;13.60;99.90
52495;DHT22;38405;53.212;5.660;2022-08-19T01:11:58;13.60;99.90
52495;DHT22;38405;53.212;5.660;2022-08-19T01:14:24;13.50;99.90
52495;DHT22;38405;53.212;5.660;2022-08-19T01:16:52;13.50;99.90
52495;DHT22;38405;53.212;5.660;2022-08-19T01:19:29;13.50;99.90
52495;DHT22;38405;53.212;5.660;2022-08-19T01:22:03;13.50;99.90
52495;DHT22;38405;53.212;5.660;2022-08-19T01:24:31;13.50;99.90
52495;DHT22;38405;53.212;5.660;2022-08-19T01:26:57;13.40;99.90
52495;DHT22;38405;53.212;5.660;2022-08-19T01:29:23;13.40;99.90
52495;DHT22;38405;53.212;5.660;2022-08-19T01:31:48;13.40;99.90
52495;DHT22;38405;53.212;5.660;2022-08-19T01:34:18;13.50;99.90
52495;DHT22;38405;53.212;5.660;2022-08-19T01:36:46;13.40;99.90
52495;DHT22;38405;53.212;5.660;2022-08-19T01:39:19;13.50;99.90
52495;DHT22;38405;53.212;5.660;2022-08-19T01:41:45;13.50;99.90
52495;DHT22;38405;53.212;5.660;2022-08-19T01:44:11;13.50;99.90
52495;DHT22;38405;53.212;5.660;2022-08-19T01:46:37;13.50;99.90
52495;DHT22;38405;53.212;5.660;2022-08-19T01:49:05;13.50;99.90
52495;DHT22;38405;53.212;5.660;2022-08-19T01:51:31;13.50;99.90
52495;DHT22;38405;53.212;5.660;2022-08-19T01:53:58;13.40;99.90
52495;DHT22;38405;53.212;5.660;2022-08-19T01:56:25;13.50;99.90
52495;DHT22;38405;53.212;5.660;2022-08-19T01:59:02;13.60;99.90
52495;DHT22;38405;53.212;5.660;2022-08-19T02:01:28;13.60;99.90
52495;DHT22;38405;53.212;5.660;2022-08-19T02:03:57;13.60;99.90
52495;DHT22;38405;53.212;5.660;2022-08-19T02:06:24;13.60;99.90
52495;DHT22;38405;53.212;5.660;2022-08-19T02:08:49;13.60;99.90
52495;DHT22;38405;53.212;5.660;2022-08-19T02:11:27;13.50;99.90
52495;DHT22;38405;53.212;5.660;2022-08-19T02:13:54;13.60;99.90
52495;DHT22;38405;53.212;5.660;2022-08-19T02:16:21;13.50;99.90
52495;DHT22;38405;53.212;5.660;2022-08-19T02:18:47;13.50;99.90
52495;DHT22;38405;53.212;5.660;2022-08-19T02:21:20;13.50;99.90
52495;DHT22;38405;53.212;5.660;2022-08-19T02:23:47;13.40;99.90
52495;DHT22;38405;53.212;5.660;2022-08-19T02:26:12;13.50;99.90
52495;DHT22;38405;53.212;5.660;2022-08-19T02:28:39;13.50;99.90
52495;DHT22;38405;53.212;5.660;2022-08-19T02:31:09;13.50;99.90
52495;DHT22;38405;53.212;5.660;2022-08-19T02:33:35;13.50;99.90
52495;DHT22;38405;53.212;5.660;2022-08-19T02:36:04;13.50;99.90
52495;DHT22;38405;53.212;5.660;2022-08-19T02:38:29;13.50;99.90
52495;DHT22;38405;53.212;5.660;2022-08-19T02:41:01;13.50;99.90
52495;DHT22;38405;53.212;5.660;2022-08-19T02:43:29;13.50;99.90
52495;DHT22;38405;53.212;5.660;2022-08-19T02:45:55;13.60;99.90
52495;DHT22;38405;53.212;5.660;2022-08-19T02:48:23;13.60;99.90
52495;DHT22;38405;53.212;5.660;2022-08-19T02:50:50;13.50;99.90
52495;DHT22;38405;53.212;5.660;2022-08-19T02:53:22;13.50;99.90
52495;DHT22;38405;53.212;5.660;2022-08-19T02:55:49;13.40;99.90
52495;DHT22;38405;53.212;5.660;2022-08-19T02:58:15;13.30;99.90
52495;DHT22;38405;53.212;5.660;2022-08-19T03:00:47;13.20;99.90
52495;DHT22;38405;53.212;5.660;2022-08-19T03:03:14;13.20;99.90
52495;DHT22;38405;53.212;5.660;2022-08-19T03:05:40;13.10;99.90
52495;DHT22;38405;53.212;5.660;2022-08-19T03:08:07;13.10;99.90
52495;DHT22;38405;53.212;5.660;2022-08-19T03:10:41;13.10;99.90
52495;DHT22;38405;53.212;5.660;2022-08-19T03:13:09;13.10;99.90
52495;DHT22;38405;53.212;5.660;2022-08-19T03:15:39;13.10;99.90
52495;DHT22;38405;53.212;5.660;2022-08-19T03:18:05;13.00;99.90
52495;DHT22;38405;53.212;5.660;2022-08-19T03:20:30;13.00;99.90
52495;DHT22;38405;53.212;5.660;2022-08-19T03:22:56;13.00;99.90
52495;DHT22;38405;53.212;5.660;2022-08-19T03:25:22;12.90;99.90
52495;DHT22;38405;53.212;5.660;2022-08-19T03:27:48;12.90;99.90
52495;DHT22;38405;53.212;5.660;2022-08-19T03:30:14;12.90;99.90
52495;DHT22;38405;53.212;5.660;2022-08-19T03:32:40;13.00;99.90
52495;DHT22;38405;53.212;5.660;2022-08-19T03:35:06;13.00;99.90
52495;DHT22;38405;53.212;5.660;2022-08-19T03:37:32;13.10;99.90
52495;DHT22;38405;53.212;5.660;2022-08-19T03:39:58;13.10;99.90
52495;DHT22;38405;53.212;5.660;2022-08-19T03:42:23;13.10;99.90
52495;DHT22;38405;53.212;5.660;2022-08-19T03:44:50;13.10;99.90
52495;DHT22;38405;53.212;5.660;2022-08-19T03:47:15;13.10;99.90
52495;DHT22;38405;53.212;5.660;2022-08-19T03:49:42;13.10;99.90
52495;DHT22;38405;53.212;5.660;2022-08-19T03:52:08;13.10;99.90
52495;DHT22;38405;53.212;5.660;2022-08-19T03:54:34;13.00;99.90
52495;DHT22;38405;53.212;5.660;2022-08-19T03:57:00;13.00;99.90
52495;DHT22;38405;53.212;5.660;2022-08-19T03:59:28;13.00;99.90
52495;DHT22;38405;53.212;5.660;2022-08-19T04:02:00;12.90;99.90
52495;DHT22;38405;53.212;5.660;2022-08-19T04:04:26;12.90;99.90
52495;DHT22;38405;53.212;5.660;2022-08-19T04:06:52;12.90;99.90
52495;DHT22;38405;53.212;5.660;2022-08-19T04:09:19;12.90;99.90
52495;DHT22;38405;53.212;5.660;2022-08-19T04:11:48;12.90;99.90
52495;DHT22;38405;53.212;5.660;2022-08-19T04:14:18;12.90;99.90
52495;DHT22;38405;53.212;5.660;2022-08-19T04:16:45;13.00;99.90
52495;DHT22;38405;53.212;5.660;2022-08-19T04:19:12;12.90;99.90
52495;DHT22;38405;53.212;5.660;2022-08-19T04:21:38;13.00;99.90
52495;DHT22;38405;53.212;5.660;2022-08-19T04:24:04;13.00;99.90
52495;DHT22;38405;53.212;5.660;2022-08-19T04:26:32;13.10;99.90
52495;DHT22;38405;53.212;5.660;2022-08-19T04:29:03;13.10;99.90
52495;DHT22;38405;53.212;5.660;2022-08-19T04:31:31;13.20;99.90
52495;DHT22;38405;53.212;5.660;2022-08-19T04:33:59;13.10;99.90
52495;DHT22;38405;53.212;5.660;2022-08-19T04:36:27;13.20;99.90
52495;DHT22;38405;53.212;5.660;2022-08-19T04:38:56;13.10;99.90
52495;DHT22;38405;53.212;5.660;2022-08-19T04:41:22;13.20;99.90
52495;DHT22;38405;53.212;5.660;2022-08-19T04:44:06;13.20;99.90
52495;DHT22;38405;53.212;5.660;2022-08-19T04:46:32;13.30;99.90
52495;DHT22;38405;53.212;5.660;2022-08-19T04:48:59;13.30;99.90
52495;DHT22;38405;53.212;5.660;2022-08-19T04:51:24;13.30;99.90
52495;DHT22;38405;53.212;5.660;2022-08-19T04:53:51;13.50;99.90
52495;DHT22;38405;53.212;5.660;2022-08-19T04:56:18;13.60;99.90
52495;DHT22;38405;53.212;5.660;2022-08-19T04:58:47;13.50;99.90
52495;DHT22;38405;53.212;5.660;2022-08-19T05:01:17;13.60;99.90
52495;DHT22;38405;53.212;5.660;2022-08-19T05:03:43;13.60;99.90
52495;DHT22;38405;53.212;5.660;2022-08-19T05:06:14;13.60;99.90
52495;DHT22;38405;53.212;5.660;2022-08-19T05:08:41;13.70;99.90
52495;DHT22;38405;53.212;5.660;2022-08-19T05:11:14;13.80;99.90
52495;DHT22;38405;53.212;5.660;2022-08-19T05:13:41;13.80;99.90
52495;DHT22;38405;53.212;5.660;2022-08-19T05:16:09;13.90;99.90
52495;DHT22;38405;53.212;5.660;2022-08-19T05:18:34;14.00;99.90
52495;DHT22;38405;53.212;5.660;2022-08-19T05:21:19;14.10;99.90
52495;DHT22;38405;53.212;5.660;2022-08-19T05:24:05;14.20;99.90
52495;DHT22;38405;53.212;5.660;2022-08-19T05:26:35;14.30;99.90
52495;DHT22;38405;53.212;5.660;2022-08-19T05:29:01;14.40;99.90
52495;DHT22;38405;53.212;5.660;2022-08-19T05:31:28;14.50;99.90
52495;DHT22;38405;53.212;5.660;2022-08-19T05:33:54;14.50;99.90
52495;DHT22;38405;53.212;5.660;2022-08-19T05:36:21;14.60;99.90
52495;DHT22;38405;53.212;5.660;2022-08-19T05:38:46;14.70;99.90
52495;DHT22;38405;53.212;5.660;2022-08-19T05:41:14;14.80;99.90
52495;DHT22;38405;53.212;5.660;2022-08-19T05:43:40;14.90;99.90
52495;DHT22;38405;53.212;5.660;2022-08-19T05:46:07;15.10;99.90
52495;DHT22;38405;53.212;5.660;2022-08-19T05:48:34;15.20;99.90
52495;DHT22;38405;53.212;5.660;2022-08-19T05:51:07;15.30;99.90
52495;DHT22;38405;53.212;5.660;2022-08-19T05:53:34;15.40;99.90
52495;DHT22;38405;53.212;5.660;2022-08-19T05:56:07;15.50;99.90
52495;DHT22;38405;53.212;5.660;2022-08-19T05:58:33;15.70;99.90
52495;DHT22;38405;53.212;5.660;2022-08-19T06:00:59;15.80;99.90
52495;DHT22;38405;53.212;5.660;2022-08-19T06:03:30;16.00;99.90
52495;DHT22;38405;53.212;5.660;2022-08-19T06:05:57;16.20;99.90
52495;DHT22;38405;53.212;5.660;2022-08-19T06:08:24;16.30;99.90
52495;DHT22;38405;53.212;5.660;2022-08-19T06:10:49;16.50;99.90
52495;DHT22;38405;53.212;5.660;2022-08-19T06:13:15;16.60;99.90
52495;DHT22;38405;53.212;5.660;2022-08-19T06:15:40;16.80;99.90
52495;DHT22;38405;53.212;5.660;2022-08-19T06:18:09;16.90;99.90
52495;DHT22;38405;53.212;5.660;2022-08-19T06:20:35;17.10;99.90
52495;DHT22;38405;53.212;5.660;2022-08-19T06:23:00;17.30;99.90
52495;DHT22;38405;53.212;5.660;2022-08-19T06:25:26;17.40;99.90
52495;DHT22;38405;53.212;5.660;2022-08-19T06:27:51;17.60;99.90
52495;DHT22;38405;53.212;5.660;2022-08-19T06:30:18;17.80;99.90
52495;DHT22;38405;53.212;5.660;2022-08-19T06:32:43;18.00;99.90
52495;DHT22;38405;53.212;5.660;2022-08-19T06:35:09;18.40;99.90
52495;DHT22;38405;53.212;5.660;2022-08-19T06:37:36;18.60;99.90
52495;DHT22;38405;53.212;5.660;2022-08-19T06:40:02;18.80;99.90
52495;DHT22;38405;53.212;5.660;2022-08-19T06:42:28;19.00;99.90
52495;DHT22;38405;53.212;5.660;2022-08-19T06:44:54;19.10;99.90
52495;DHT22;38405;53.212;5.660;2022-08-19T06:47:21;19.20;99.90
52495;DHT22;38405;53.212;5.660;2022-08-19T06:49:47;19.20;99.90
52495;DHT22;38405;53.212;5.660;2022-08-19T06:52:13;19.70;99.90
52495;DHT22;38405;53.212;5.660;2022-08-19T06:54:40;20.60;99.90
52495;DHT22;38405;53.212;5.660;2022-08-19T06:57:07;21.60;99.90
52495;DHT22;38405;53.212;5.660;2022-08-19T06:59:34;22.40;99.90
52495;DHT22;38405;53.212;5.660;2022-08-19T07:02:03;23.00;99.90
52495;DHT22;38405;53.212;5.660;2022-08-19T07:04:32;23.60;99.90
52495;DHT22;38405;53.212;5.660;2022-08-19T07:07:00;24.10;99.90
52495;DHT22;38405;53.212;5.660;2022-08-19T07:09:27;24.50;99.90
52495;DHT22;38405;53.212;5.660;2022-08-19T07:11:54;25.30;99.90
52495;DHT22;38405;53.212;5.660;2022-08-19T07:14:23;25.90;99.90
52495;DHT22;38405;53.212;5.660;2022-08-19T07:16:51;26.30;99.90
52495;DHT22;38405;53.212;5.660;2022-08-19T07:19:18;26.80;99.90
52495;DHT22;38405;53.212;5.660;2022-08-19T07:21:45;27.10;99.90
52495;DHT22;38405;53.212;5.660;2022-08-19T07:24:11;27.30;99.90
52495;DHT22;38405;53.212;5.660;2022-08-19T07:26:40;27.60;99.90
52495;DHT22;38405;53.212;5.660;2022-08-19T07:29:06;27.90;99.90
52495;DHT22;38405;53.212;5.660;2022-08-19T07:31:32;28.10;99.90
52495;DHT22;38405;53.212;5.660;2022-08-19T07:34:07;28.30;99.90
52495;DHT22;38405;53.212;5.660;2022-08-19T07:36:35;28.50;99.90
52495;DHT22;38405;53.212;5.660;2022-08-19T07:39:07;29.00;99.90
52495;DHT22;38405;53.212;5.660;2022-08-19T07:41:34;29.10;99.90
52495;DHT22;38405;53.212;5.660;2022-08-19T07:44:01;29.20;99.90
52495;DHT22;38405;53.212;5.660;2022-08-19T07:46:32;29.30;99.90
52495;DHT22;38405;53.212;5.660;2022-08-19T07:48:57;29.30;99.90
52495;DHT22;38405;53.212;5.660;2022-08-19T07:51:24;29.50;99.90
52495;DHT22;38405;53.212;5.660;2022-08-19T07:53:50;29.80;99.90
52495;DHT22;38405;53.212;5.660;2022-08-19T07:56:17;30.10;99.90
52495;DHT22;38405;53.212;5.660;2022-08-19T07:58:45;30.40;99.90
52495;DHT22;38405;53.212;5.660;2022-08-19T08:01:18;30.80;99.90
52495;DHT22;38405;53.212;5.660;2022-08-19T08:03:44;31.00;99.90
52495;DHT22;38405;53.212;5.660;2022-08-19T08:06:29;31.10;99.90
52495;DHT22;38405;53.212;5.660;2022-08-19T08:09:16;31.10;99.90
52495;DHT22;38405;53.212;5.660;2022-08-19T08:14:24;31.60;99.90
52495;DHT22;38405;53.212;5.660;2022-08-19T08:16:51;31.40;99.90
52495;DHT22;38405;53.212;5.660;2022-08-19T08:19:21;31.00;99.90
52495;DHT22;38405;53.212;5.660;2022-08-19T08:21:48;31.20;99.90
52495;DHT22;38405;53.212;5.660;2022-08-19T08:24:14;31.40;99.90
52495;DHT22;38405;53.212;5.660;2022-08-19T08:26:40;31.30;99.90
52495;DHT22;38405;53.212;5.660;2022-08-19T08:29:06;31.10;99.90
52495;DHT22;38405;53.212;5.660;2022-08-19T08:31:35;30.80;99.90
52495;DHT22;38405;53.212;5.660;2022-08-19T08:34:02;29.90;99.90
52495;DHT22;38405;53.212;5.660;2022-08-19T08:36:27;29.20;99.90
52495;DHT22;38405;53.212;5.660;2022-08-19T08:38:53;28.80;99.90
52495;DHT22;38405;53.212;5.660;2022-08-19T08:41:35;28.30;99.90
52495;DHT22;38405;53.212;5.660;2022-08-19T08:44:03;28.40;99.90
52495;DHT22;38405;53.212;5.660;2022-08-19T08:46:44;28.30;99.90
52495;DHT22;38405;53.212;5.660;2022-08-19T08:49:34;29.20;99.90
52495;DHT22;38405;53.212;5.660;2022-08-19T08:52:06;30.40;99.90
52495;DHT22;38405;53.212;5.660;2022-08-19T08:54:36;31.00;99.90
52495;DHT22;38405;53.212;5.660;2022-08-19T08:57:07;31.20;99.90
52495;DHT22;38405;53.212;5.660;2022-08-19T08:59:39;30.70;99.90
52495;DHT22;38405;53.212;5.660;2022-08-19T09:02:07;30.30;99.90
52495;DHT22;38405;53.212;5.660;2022-08-19T09:04:36;29.90;99.90
52495;DHT22;38405;53.212;5.660;2022-08-19T09:09:55;28.90;99.90
52495;DHT22;38405;53.212;5.660;2022-08-19T09:15:16;28.60;99.90
52495;DHT22;38405;53.212;5.660;2022-08-19T09:17:43;28.10;99.90
52495;DHT22;38405;53.212;5.660;2022-08-19T09:22:37;27.60;99.90
52495;DHT22;38405;53.212;5.660;2022-08-19T09:25:03;28.00;99.90
52495;DHT22;38405;53.212;5.660;2022-08-19T09:27:30;28.10;99.90
52495;DHT22;38405;53.212;5.660;2022-08-19T09:29:57;28.60;99.90
52495;DHT22;38405;53.212;5.660;2022-08-19T09:32:23;29.00;99.90
52495;DHT22;38405;53.212;5.660;2022-08-19T09:34:49;29.50;99.90
52495;DHT22;38405;53.212;5.660;2022-08-19T09:37:15;29.90;99.90
52495;DHT22;38405;53.212;5.660;2022-08-19T09:39:41;30.10;99.90
52495;DHT22;38405;53.212;5.660;2022-08-19T09:42:08;30.10;99.90
52495;DHT22;38405;53.212;5.660;2022-08-19T09:44:39;29.80;99.90
52495;DHT22;38405;53.212;5.660;2022-08-19T09:47:05;29.80;99.90
52495;DHT22;38405;53.212;5.660;2022-08-19T09:49:31;29.70;99.90
52495;DHT22;38405;53.212;5.660;2022-08-19T09:51:57;29.60;99.90
52495;DHT22;38405;53.212;5.660;2022-08-19T09:54:23;29.70;99.90
52495;DHT22;38405;53.212;5.660;2022-08-19T09:56:49;29.80;99.90
52495;DHT22;38405;53.212;5.660;2022-08-19T09:59:15;29.70;99.90
52495;DHT22;38405;53.212;5.660;2022-08-19T10:01:40;29.90;99.90
52495;DHT22;38405;53.212;5.660;2022-08-19T10:04:06;29.80;99.90
52495;DHT22;38405;53.212;5.660;2022-08-19T10:06:37;29.80;99.90
52495;DHT22;38405;53.212;5.660;2022-08-19T10:09:04;29.50;99.90
52495;DHT22;38405;53.212;5.660;2022-08-19T10:11:32;29.20;99.90
52495;DHT22;38405;53.212;5.660;2022-08-19T10:13:58;29.00;99.90
52495;DHT22;38405;53.212;5.660;2022-08-19T10:16:24;28.80;99.90
52495;DHT22;38405;53.212;5.660;2022-08-19T10:18:51;28.60;99.90
52495;DHT22;38405;53.212;5.660;2022-08-19T10:21:20;28.40;99.90
52495;DHT22;38405;53.212;5.660;2022-08-19T10:23:48;28.10;99.90
52495;DHT22;38405;53.212;5.660;2022-08-19T10:26:34;27.90;99.90
52495;DHT22;38405;53.212;5.660;2022-08-19T10:29:01;27.70;99.90
52495;DHT22;38405;53.212;5.660;2022-08-19T10:31:30;27.90;99.90
52495;DHT22;38405;53.212;5.660;2022-08-19T10:33:56;28.10;99.90
52495;DHT22;38405;53.212;5.660;2022-08-19T10:36:26;28.20;99.90
52495;DHT22;38405;53.212;5.660;2022-08-19T10:38:54;28.00;99.90
52495;DHT22;38405;53.212;5.660;2022-08-19T10:41:24;27.80;99.90
52495;DHT22;38405;53.212;5.660;2022-08-19T10:43:55;28.00;99.90
52495;DHT22;38405;53.212;5.660;2022-08-19T10:46:22;28.30;99.90
52495;DHT22;38405;53.212;5.660;2022-08-19T10:48:49;28.60;99.90
52495;DHT22;38405;53.212;5.660;2022-08-19T10:51:15;28.60;99.90
52495;DHT22;38405;53.212;5.660;2022-08-19T10:54:00;28.70;99.90
52495;DHT22;38405;53.212;5.660;2022-08-19T10:56:26;28.90;99.90
52495;DHT22;38405;53.212;5.660;2022-08-19T10:59:11;28.80;99.90
52495;DHT22;38405;53.212;5.660;2022-08-19T11:01:39;29.00;99.90
52495;DHT22;38405;53.212;5.660;2022-08-19T11:04:05;28.90;99.90
52495;DHT22;38405;53.212;5.660;2022-08-19T11:06:34;28.70;99.90
52495;DHT22;38405;53.212;5.660;2022-08-19T11:08:59;28.70;99.90
52495;DHT22;38405;53.212;5.660;2022-08-19T11:11:26;28.70;99.90
52495;DHT22;38405;53.212;5.660;2022-08-19T11:13:52;28.80;99.90
52495;DHT22;38405;53.212;5.660;2022-08-19T11:16:20;28.70;99.90
52495;DHT22;38405;53.212;5.660;2022-08-19T11:18:50;28.40;99.90
52495;DHT22;38405;53.212;5.660;2022-08-19T11:21:22;28.10;99.90
52495;DHT22;38405;53.212;5.660;2022-08-19T11:23:51;27.80;99.90
52495;DHT22;38405;53.212;5.660;2022-08-19T11:26:19;27.70;99.90
52495;DHT22;38405;53.212;5.660;2022-08-19T11:28:45;27.50;99.90
52495;DHT22;38405;53.212;5.660;2022-08-19T11:31:16;27.50;99.90
52495;DHT22;38405;53.212;5.660;2022-08-19T11:33:43;27.50;99.90
52495;DHT22;38405;53.212;5.660;2022-08-19T11:36:09;27.60;99.90
52495;DHT22;38405;53.212;5.660;2022-08-19T11:38:36;27.70;99.90
52495;DHT22;38405;53.212;5.660;2022-08-19T11:41:05;27.50;99.90
52495;DHT22;38405;53.212;5.660;2022-08-19T11:43:31;27.40;99.90
52495;DHT22;38405;53.212;5.660;2022-08-19T11:45:57;27.30;99.90
52495;DHT22;38405;53.212;5.660;2022-08-19T11:48:24;27.20;99.90
52495;DHT22;38405;53.212;5.660;2022-08-19T11:50:51;27.10;99.90
52495;DHT22;38405;53.212;5.660;2022-08-19T11:53:18;27.10;99.90
52495;DHT22;38405;53.212;5.660;2022-08-19T11:55:46;27.10;99.90
52495;DHT22;38405;53.212;5.660;2022-08-19T11:58:13;27.10;99.90
52495;DHT22;38405;53.212;5.660;2022-08-19T12:00:40;27.00;99.90
52495;DHT22;38405;53.212;5.660;2022-08-19T12:03:06;26.90;99.90
52495;DHT22;38405;53.212;5.660;2022-08-19T12:05:32;26.90;99.90
52495;DHT22;38405;53.212;5.660;2022-08-19T12:07:57;26.80;99.90
52495;DHT22;38405;53.212;5.660;2022-08-19T12:10:24;26.90;99.90
52495;DHT22;38405;53.212;5.660;2022-08-19T12:12:49;27.10;99.90
52495;DHT22;38405;53.212;5.660;2022-08-19T12:15:15;27.30;99.90
52495;DHT22;38405;53.212;5.660;2022-08-19T12:17:41;27.40;99.90
52495;DHT22;38405;53.212;5.660;2022-08-19T12:20:09;27.50;99.90
52495;DHT22;38405;53.212;5.660;2022-08-19T12:22:39;27.50;99.90
52495;DHT22;38405;53.212;5.660;2022-08-19T12:25:09;27.40;99.90
52495;DHT22;38405;53.212;5.660;2022-08-19T12:27:35;27.10;99.90
52495;DHT22;38405;53.212;5.660;2022-08-19T12:30:02;27.10;99.90
52495;DHT22;38405;53.212;5.660;2022-08-19T12:32:29;27.00;99.90
52495;DHT22;38405;53.212;5.660;2022-08-19T12:34:55;27.00;99.90
52495;DHT22;38405;53.212;5.660;2022-08-19T12:37:20;27.10;99.90
52495;DHT22;38405;53.212;5.660;2022-08-19T12:39:46;27.30;99.90
52495;DHT22;38405;53.212;5.660;2022-08-19T12:42:13;27.60;99.90
52495;DHT22;38405;53.212;5.660;2022-08-19T12:44:41;27.80;99.90
52495;DHT22;38405;53.212;5.660;2022-08-19T12:47:08;27.90;99.90
52495;DHT22;38405;53.212;5.660;2022-08-19T12:49:34;27.80;99.90
52495;DHT22;38405;53.212;5.660;2022-08-19T12:52:03;27.80;99.90
52495;DHT22;38405;53.212;5.660;2022-08-19T12:54:28;27.70;99.90
52495;DHT22;38405;53.212;5.660;2022-08-19T12:56:59;27.70;99.90
52495;DHT22;38405;53.212;5.660;2022-08-19T12:59:25;27.70;99.90
52495;DHT22;38405;53.212;5.660;2022-08-19T13:01:51;27.80;99.90
52495;DHT22;38405;53.212;5.660;2022-08-19T13:04:17;27.60;99.90
52495;DHT22;38405;53.212;5.660;2022-08-19T13:06:43;27.70;99.90
52495;DHT22;38405;53.212;5.660;2022-08-19T13:09:09;27.60;99.90
52495;DHT22;38405;53.212;5.660;2022-08-19T13:11:36;27.40;99.90
52495;DHT22;38405;53.212;5.660;2022-08-19T13:14:02;27.40;99.90
52495;DHT22;38405;53.212;5.660;2022-08-19T13:16:29;27.30;99.90
52495;DHT22;38405;53.212;5.660;2022-08-19T13:18:55;27.00;99.90
52495;DHT22;38405;53.212;5.660;2022-08-19T13:21:24;27.00;99.90
52495;DHT22;38405;53.212;5.660;2022-08-19T13:23:51;27.00;99.90
52495;DHT22;38405;53.212;5.660;2022-08-19T13:26:17;26.90;99.90
52495;DHT22;38405;53.212;5.660;2022-08-19T13:28:44;26.80;99.90
52495;DHT22;38405;53.212;5.660;2022-08-19T13:31:31;26.70;99.90
52495;DHT22;38405;53.212;5.660;2022-08-19T13:34:18;26.60;99.90
52495;DHT22;38405;53.212;5.660;2022-08-19T13:36:45;26.60;99.90
52495;DHT22;38405;53.212;5.660;2022-08-19T13:39:11;26.60;99.90
52495;DHT22;38405;53.212;5.660;2022-08-19T13:41:41;26.70;99.90
52495;DHT22;38405;53.212;5.660;2022-08-19T13:44:08;26.80;99.90
52495;DHT22;38405;53.212;5.660;2022-08-19T13:46:34;26.80;99.90
52495;DHT22;38405;53.212;5.660;2022-08-19T13:48:59;26.70;99.90
52495;DHT22;38405;53.212;5.660;2022-08-19T13:51:25;26.50;99.90
52495;DHT22;38405;53.212;5.660;2022-08-19T13:53:50;26.30;99.90
52495;DHT22;38405;53.212;5.660;2022-08-19T13:56:17;26.10;99.90
52495;DHT22;38405;53.212;5.660;2022-08-19T13:58:44;26.00;99.90
52495;DHT22;38405;53.212;5.660;2022-08-19T14:01:10;25.90;99.90
52495;DHT22;38405;53.212;5.660;2022-08-19T14:03:36;26.20;99.90
52495;DHT22;38405;53.212;5.660;2022-08-19T14:06:03;26.30;99.90
52495;DHT22;38405;53.212;5.660;2022-08-19T14:08:29;26.40;99.90
52495;DHT22;38405;53.212;5.660;2022-08-19T14:10:58;26.50;99.90
52495;DHT22;38405;53.212;5.660;2022-08-19T14:13:23;26.80;99.90
52495;DHT22;38405;53.212;5.660;2022-08-19T14:15:50;26.80;99.90
52495;DHT22;38405;53.212;5.660;2022-08-19T14:18:17;27.00;99.90
52495;DHT22;38405;53.212;5.660;2022-08-19T14:20:44;26.90;99.90
52495;DHT22;38405;53.212;5.660;2022-08-19T14:23:10;26.70;99.90
52495;DHT22;38405;53.212;5.660;2022-08-19T14:25:37;26.60;99.90
52495;DHT22;38405;53.212;5.660;2022-08-19T14:28:03;26.70;99.90
52495;DHT22;38405;53.212;5.660;2022-08-19T14:30:31;26.40;99.90
52495;DHT22;38405;53.212;5.660;2022-08-19T14:32:59;26.20;99.90
52495;DHT22;38405;53.212;5.660;2022-08-19T14:35:26;25.90;99.90
52495;DHT22;38405;53.212;5.660;2022-08-19T14:37:52;25.70;99.90
52495;DHT22;38405;53.212;5.660;2022-08-19T14:40:22;25.60;99.90
52495;DHT22;38405;53.212;5.660;2022-08-19T14:42:52;25.50;99.90
52495;DHT22;38405;53.212;5.660;2022-08-19T14:45:21;25.60;99.90
52495;DHT22;38405;53.212;5.660;2022-08-19T14:47:46;25.60;99.90
52495;DHT22;38405;53.212;5.660;2022-08-19T14:50:12;25.70;99.90
52495;DHT22;38405;53.212;5.660;2022-08-19T14:52:39;25.60;99.90
52495;DHT22;38405;53.212;5.660;2022-08-19T14:55:06;25.70;99.90
52495;DHT22;38405;53.212;5.660;2022-08-19T14:57:31;25.70;99.90
52495;DHT22;38405;53.212;5.660;2022-08-19T14:59:58;25.70;99.90
52495;DHT22;38405;53.212;5.660;2022-08-19T15:02:24;25.80;99.90
52495;DHT22;38405;53.212;5.660;2022-08-19T15:04:49;25.80;99.90
52495;DHT22;38405;53.212;5.660;2022-08-19T15:07:16;25.80;99.90
52495;DHT22;38405;53.212;5.660;2022-08-19T15:09:41;25.80;99.90
52495;DHT22;38405;53.212;5.660;2022-08-19T15:12:07;25.80;99.90
52495;DHT22;38405;53.212;5.660;2022-08-19T15:14:36;25.80;99.90
52495;DHT22;38405;53.212;5.660;2022-08-19T15:17:04;25.70;99.90
52495;DHT22;38405;53.212;5.660;2022-08-19T15:19:31;25.70;99.90
52495;DHT22;38405;53.212;5.660;2022-08-19T15:21:58;25.70;99.90
52495;DHT22;38405;53.212;5.660;2022-08-19T15:24:25;25.60;99.90
52495;DHT22;38405;53.212;5.660;2022-08-19T15:26:53;25.60;99.90
52495;DHT22;38405;53.212;5.660;2022-08-19T15:29:21;25.70;99.90
52495;DHT22;38405;53.212;5.660;2022-08-19T15:31:50;25.70;99.90
52495;DHT22;38405;53.212;5.660;2022-08-19T15:34:19;25.80;99.90
52495;DHT22;38405;53.212;5.660;2022-08-19T15:36:44;25.70;99.90
52495;DHT22;38405;53.212;5.660;2022-08-19T15:39:10;25.60;99.90
52495;DHT22;38405;53.212;5.660;2022-08-19T15:41:36;25.60;99.90
52495;DHT22;38405;53.212;5.660;2022-08-19T15:44:09;25.60;99.90